Anaktuvuk Pass, AK

8:13 AM AKST on February 21, 2018 (GMT -0900)
Anaktuvuk Pass | | Change Station
Active Advisory: Winter Weather Advisory

Elev 2106 ft 68.13 °N, 151.74 °W | Updated 17 minutes ago

Scattered Clouds
Scattered Clouds
14 °F
Feels Like -1 °F
N
15
Wind Variable Wind from SW
Gusts 20 mph

Today
High -- | Low -- °F
--% Chance of Precip.
Yesterday
High -- | Low -- °F
Precip. -- in
Pressure 30.27 in
Visibility 10.0 miles
Clouds Scattered Clouds 4100 ft
Windchill -1 °F
Dew Point 10 °F
Humidity 84%
Rainfall 0.00 in
Snow Depth Not available.
8:59 AM 5:43 PM
Waxing Crescent, 32% visible
METAR PAKP 211656Z AUTO 22013G17KT 10SM SCT041 M10/M12 A3009 RMK AO2 SLP249 T11001122 FZRANO
Pressure 30.27 in
Visibility 10.0 miles
Clouds Scattered Clouds 4100 ft
Windchill -1 °F
Dew Point 10 °F
Humidity 84%
Rainfall 0.00 in
Snow Depth Not available.
8:59 AM 5:43 PM
Waxing Crescent, 32% visible
METAR PAKP 211656Z AUTO 22013G17KT 10SM SCT041 M10/M12 A3009 RMK AO2 SLP249 T11001122 FZRANO

Get Your Daily Forecast Email!

Thanks for signing up!

Be on the lookout for a verification email in your inbox.

You'll start receiving severe weather alerts in your inbox..

×

10-Day Weather Forecast

Almanac

Astronomy

Feb. 21, 2018 Rise Set
Actual Time
Civil Twilight
Nautical Twilight
Astronomical Twilight
Moon
Length of Visible Light
Length of Day
Tomorrow will be .
, % of the Moon is Illuminated

Today's Extremes

State Highs State Lows

Community

WunderPhotos

Category 6

Welcome to Category 6. This is the collective home for Weather Underground's featured writeups by Dr. Jeff Masters (right), Bob Henson (left), Chris Burt, and other regular contributors.

Nearby

Air Quality

  Air Quality AQ Index Pollutant
Not available.

Snow Depth

Station Depth Elevation

Earthquake Activity

City Distance Mag. Time & Date
Minimum magnitude displayed is 2.5.

Coastal Water Temperatures

Place Temperature

Stations

Nearby Weather Stations

Station Location Temp. Windchill Dew Point Humidity Wind Precip. Elev Updated Type
                   

Watches & Warnings

Winter Weather Advisory
Issued: 8:12 AM AKST Feb. 21, 2018 – National Weather Service

... Winter Weather Advisory remains in effect until noon akst
today...

* what... blowing snow and snow expected with areas of poor
visibility.

* Where... northeastern Brooks range.

* When... until noon today. Conditions will improve this
afternoon as winds decrease.

* Additional details... winds gusting 30 to 40 mph will cause
areas of blowing and drifting snow.

Precautionary/preparedness actions...

A Winter Weather Advisory for blowing snow means periods of
blowing snow will cause travel difficulties. The latest Road
conditions can be obtained by calling 5 1 1.